Time;durP1;ratioP1;P1;durP2;ratioP2;P2;SDS_P1;SDS_P2;PMS_P1;PMS_P2;Temp;Humidity;BMP_temperature;BMP_pressure;BME280_temperature;BME280_humidity;BME280_pressure;Samples;Min_cycle;Max_cycle;Signal;HPM_P1;HPM_P2
2022/05/02 00:00:48;;;;;;;7.97;4.30;;;;;;;7.30;64.55;102051.25;5033895;28;20080;-76
2022/05/02 00:03:14;;;;;;;6.72;4.40;;;;;;;7.25;64.55;102064.09;5033726;28;20032;-77
2022/05/02 00:05:39;;;;;;;6.90;4.35;;;;;;;7.22;64.50;102062.31;5033967;28;20025;-76
2022/05/02 00:08:06;;;;;;;8.07;4.72;;;;;;;7.18;64.57;102057.94;5034222;28;20033;-76
2022/05/02 00:10:32;;;;;;;8.25;4.72;;;;;;;7.16;64.94;102058.72;5032954;28;20021;-77
2022/05/02 00:12:58;;;;;;;9.07;4.75;;;;;;;7.10;64.98;102056.91;5033581;28;20629;-77
2022/05/02 00:15:23;;;;;;;8.23;4.50;;;;;;;7.04;64.80;102059.38;5034240;28;20393;-77
2022/05/02 00:17:57;;;;;;;8.05;4.88;;;;;;;6.99;65.02;102045.50;5032948;28;20044;-77
2022/05/02 00:20:23;;;;;;;9.30;5.05;;;;;;;6.94;65.22;102050.59;5033993;28;20077;-77
2022/05/02 00:22:49;;;;;;;7.97;4.80;;;;;;;6.89;65.72;102042.75;5033658;28;20032;-77
2022/05/02 00:25:15;;;;;;;9.00;4.93;;;;;;;6.87;65.24;102052.19;5033379;28;20374;-77
2022/05/02 00:27:42;;;;;;;7.65;4.72;;;;;;;6.82;65.29;102040.91;5033496;28;20064;-77
2022/05/02 00:30:09;;;;;;;9.75;5.20;;;;;;;6.80;65.55;102043.47;5033908;28;20091;-77
2022/05/02 00:32:35;;;;;;;8.90;4.93;;;;;;;6.75;65.75;102034.75;5033032;28;20037;-77
2022/05/02 00:35:00;;;;;;;8.73;4.75;;;;;;;6.73;65.80;102038.16;5033510;28;20488;-77
2022/05/02 00:37:29;;;;;;;8.33;5.00;;;;;;;6.69;65.81;102038.94;5033574;28;20021;-77
2022/05/02 00:39:54;;;;;;;8.20;4.78;;;;;;;6.63;66.29;102034.50;5032956;28;20029;-77
2022/05/02 00:42:20;;;;;;;8.65;4.82;;;;;;;6.59;66.00;102035.28;5033781;28;20463;-77
2022/05/02 00:44:45;;;;;;;7.63;4.43;;;;;;;6.55;66.15;102029.19;5033300;28;20414;-77
2022/05/02 00:47:11;;;;;;;8.00;4.28;;;;;;;6.52;66.27;102025.69;5032912;28;20039;-77
2022/05/02 00:49:39;;;;;;;7.33;4.47;;;;;;;6.49;66.39;102029.06;5033588;28;20022;-77
2022/05/02 00:52:05;;;;;;;7.60;4.70;;;;;;;6.46;66.47;102027.31;5032182;28;20107;-77
2022/05/02 00:54:31;;;;;;;7.72;4.57;;;;;;;6.44;66.25;102033.25;5033625;28;20025;-77
2022/05/02 00:56:58;;;;;;;7.55;4.53;;;;;;;6.42;66.35;102028.06;5032793;28;20099;-77
2022/05/02 00:59:24;;;;;;;7.85;4.72;;;;;;;6.40;66.73;102023.72;5032651;28;20056;-77
2022/05/02 01:01:49;;;;;;;7.30;4.55;;;;;;;6.38;66.64;102028.84;5032918;28;20057;-77
2022/05/02 01:04:14;;;;;;;9.60;5.20;;;;;;;6.37;66.56;102021.94;5033198;28;20061;-77
2022/05/02 01:09:29;;;;;;;8.15;4.85;;;;;;;6.36;66.66;102022.78;5033347;28;20040;-77
2022/05/02 01:11:55;;;;;;;8.82;4.82;;;;;;;6.34;66.59;102024.47;5032844;28;20029;-77
2022/05/02 01:14:20;;;;;;;10.15;5.20;;;;;;;6.29;66.79;102019.22;5032364;28;20029;-76
2022/05/02 01:16:45;;;;;;;9.25;5.05;;;;;;;6.24;67.21;102031.13;5033000;28;20030;-77
2022/05/02 01:19:11;;;;;;;7.55;4.50;;;;;;;6.19;67.29;102025.03;5033069;28;20386;-77
2022/05/02 01:21:37;;;;;;;7.60;4.55;;;;;;;6.15;67.15;102028.34;5031516;28;20033;-77
2022/05/02 01:24:03;;;;;;;8.27;4.82;;;;;;;6.12;67.38;102024.00;5032693;28;20335;-77
2022/05/02 01:26:29;;;;;;;9.02;4.70;;;;;;;6.09;67.25;102017.88;5032885;28;20045;-77
2022/05/02 01:28:57;;;;;;;8.15;4.50;;;;;;;6.08;67.16;102018.75;5031416;28;20025;-77
2022/05/02 01:31:22;;;;;;;9.00;5.00;;;;;;;6.04;67.54;102012.63;5033009;28;20029;-77
2022/05/02 01:33:48;;;;;;;9.25;4.75;;;;;;;6.01;67.49;102020.31;5032274;28;20066;-77
2022/05/02 01:36:15;;;;;;;8.57;4.82;;;;;;;5.97;67.67;102019.31;5032093;28;20442;-77
2022/05/02 01:38:41;;;;;;;7.97;4.47;;;;;;;5.95;67.57;102009.81;5032621;28;20021;-77
2022/05/02 01:41:07;;;;;;;7.05;4.30;;;;;;;5.91;67.96;102016.63;5032806;28;20279;-77
2022/05/02 01:43:33;;;;;;;8.07;4.55;;;;;;;5.86;67.78;102013.06;5031971;28;20037;-77
2022/05/02 01:45:59;;;;;;;7.22;4.47;;;;;;;5.83;68.08;102010.44;5032120;28;20079;-77
2022/05/02 01:48:25;;;;;;;8.47;4.70;;;;;;;5.79;67.80;102008.59;5031981;28;20381;-77
2022/05/02 01:50:50;;;;;;;8.30;4.50;;;;;;;5.77;68.23;102012.84;5032240;28;20292;-77
2022/05/02 01:53:16;;;;;;;6.95;4.30;;;;;;;5.74;68.21;102007.66;5032701;28;20025;-77
2022/05/02 01:55:41;;;;;;;8.90;4.75;;;;;;;5.72;67.94;102010.16;5031543;28;20549;-77
2022/05/02 01:58:06;;;;;;;9.07;4.90;;;;;;;5.70;68.32;102004.09;5032631;28;20116;-77
2022/05/02 02:00:32;;;;;;;7.80;4.60;;;;;;;5.68;68.34;102009.22;5032292;28;20111;-77
2022/05/02 02:02:57;;;;;;;10.98;5.38;;;;;;;5.69;68.21;101998.09;5031042;28;20397;-77
2022/05/02 02:08:06;;;;;;;7.85;4.70;;;;;;;5.65;68.53;101998.84;5032762;28;20104;-76
2022/05/02 02:10:32;;;;;;;9.90;4.50;;;;;;;5.62;68.72;102000.47;5032012;28;20049;-77
2022/05/02 02:12:57;;;;;;;7.50;4.50;;;;;;;5.56;68.79;102004.66;5032450;28;20029;-77
2022/05/02 02:15:25;;;;;;;6.93;4.30;;;;;;;5.51;68.88;102000.25;5032262;28;20393;-77
2022/05/02 02:17:50;;;;;;;7.78;4.25;;;;;;;5.49;68.70;101999.31;5031492;28;20029;-77
2022/05/02 02:20:15;;;;;;;6.97;4.15;;;;;;;5.45;68.97;102000.06;5032447;28;20032;-77
2022/05/02 02:22:41;;;;;;;7.38;4.10;;;;;;;5.44;68.89;101998.31;5031875;28;20037;-77
2022/05/02 02:25:07;;;;;;;7.22;4.35;;;;;;;5.43;68.89;101996.59;5031651;28;20470;-77
2022/05/02 02:27:33;;;;;;;8.35;4.70;;;;;;;5.39;68.73;102004.25;5031960;28;20405;-77
2022/05/02 02:29:58;;;;;;;6.90;4.25;;;;;;;5.37;69.16;102002.44;5031912;28;20025;-76
2022/05/02 02:32:24;;;;;;;7.15;4.28;;;;;;;5.33;68.66;102006.66;5031542;28;20033;-77
2022/05/02 02:34:49;;;;;;;7.82;4.50;;;;;;;5.29;68.76;101997.13;5035081;28;20025;-76
2022/05/02 02:37:16;;;;;;;7.15;4.28;;;;;;;5.30;69.17;102001.44;5035984;28;20029;-76
2022/05/02 02:39:41;;;;;;;7.85;4.45;;;;;;;5.29;69.30;101994.56;5034919;28;20017;-77
2022/05/02 02:42:07;;;;;;;8.10;4.38;;;;;;;5.31;68.98;101995.44;5035837;28;20095;-77
2022/05/02 02:44:33;;;;;;;7.88;4.43;;;;;;;5.30;69.14;101992.84;5035538;28;20025;-77
2022/05/02 02:46:58;;;;;;;7.10;4.47;;;;;;;5.31;69.00;101992.00;5034660;28;20079;-77
2022/05/02 02:49:23;;;;;;;8.38;4.70;;;;;;;5.29;69.26;101983.38;5035394;28;20367;-77
2022/05/02 02:51:48;;;;;;;8.23;4.80;;;;;;;5.29;69.15;101989.41;5034546;28;20046;-77
2022/05/02 02:54:14;;;;;;;8.68;4.60;;;;;;;5.28;69.16;101981.63;5035649;28;20115;-77
2022/05/02 02:56:39;;;;;;;9.02;5.13;;;;;;;5.27;69.12;101980.78;5034920;28;20033;-77
2022/05/02 02:59:04;;;;;;;7.90;4.45;;;;;;;5.23;69.01;101972.13;5033515;28;20084;-77
2022/05/02 03:01:30;;;;;;;7.55;4.35;;;;;;;5.17;69.32;101973.66;5035666;28;20025;-77
2022/05/02 03:03:55;;;;;;;7.20;4.13;;;;;;;5.13;69.57;101972.69;5035069;28;20359;-77
2022/05/02 03:06:21;;;;;;;6.63;4.10;;;;;;;5.08;69.52;101967.44;5034790;28;20029;-77
2022/05/02 03:08:47;;;;;;;7.18;4.10;;;;;;;5.04;69.42;101970.78;5035111;28;20470;-77
2022/05/02 03:11:12;;;;;;;5.55;3.70;;;;;;;5.01;69.36;101970.69;5035570;28;20053;-77
2022/05/02 03:13:38;;;;;;;6.07;3.80;;;;;;;4.99;69.79;101967.19;5034046;28;20068;-77
2022/05/02 03:16:04;;;;;;;7.07;4.20;;;;;;;4.96;69.72;101967.09;5035123;28;20033;-76
2022/05/02 03:18:31;;;;;;;7.22;4.10;;;;;;;4.97;69.64;101973.13;5035403;28;20022;-77
2022/05/02 03:20:56;;;;;;;;;;;;;;;4.94;69.56;101968.78;5034725;28;20021;-77
2022/05/02 03:23:21;;;;;;;6.93;4.13;;;;;;;4.93;69.93;101974.78;5035390;28;19967;-76
2022/05/02 03:25:47;;;;;;;7.10;3.95;;;;;;;4.91;69.56;101961.84;5034812;28;20417;-77
2022/05/02 03:28:12;;;;;;;6.43;4.00;;;;;;;4.92;69.66;101971.31;5034032;28;20040;-77
2022/05/02 03:30:38;;;;;;;8.95;4.45;;;;;;;4.91;69.64;101964.41;5034897;28;20022;-76
2022/05/02 03:33:03;;;;;;;6.50;4.30;;;;;;;4.90;69.97;101966.97;5035017;28;20040;-77
2022/05/02 03:35:29;;;;;;;7.80;4.50;;;;;;;4.85;69.50;101971.09;5034194;28;20072;-76
2022/05/02 03:37:55;;;;;;;6.32;4.00;;;;;;;4.83;69.85;101970.22;5034287;28;20073;-77
2022/05/02 03:40:20;;;;;;;6.35;3.95;;;;;;;4.79;69.87;101964.09;5034811;28;20021;-76
2022/05/02 03:42:46;;;;;;;6.75;4.18;;;;;;;4.75;70.12;101964.84;5033478;28;20022;-77
2022/05/02 03:45:11;;;;;;;6.80;4.15;;;;;;;4.71;70.12;101963.03;5033920;28;20113;-77
2022/05/02 03:47:39;;;;;;;6.63;4.13;;;;;;;4.67;70.34;101964.66;5034179;28;20025;-76
2022/05/02 03:50:05;;;;;;;7.10;4.13;;;;;;;4.62;70.09;101969.66;5033843;28;20021;-77
2022/05/02 03:52:30;;;;;;;7.72;4.28;;;;;;;4.62;70.62;101968.78;5034374;28;20401;-77
2022/05/02 03:54:56;;;;;;;6.93;4.20;;;;;;;4.60;70.34;101961.03;5033524;28;20037;-77
2022/05/02 03:57:21;;;;;;;7.95;4.30;;;;;;;4.60;70.47;101966.16;5034341;28;20030;-77
2022/05/02 03:59:47;;;;;;;8.48;4.50;;;;;;;4.59;70.32;101968.72;5034081;28;20053;-77
2022/05/02 04:02:13;;;;;;;8.43;4.57;;;;;;;4.57;70.51;101967.78;5033592;28;20025;-77
2022/05/02 04:04:38;;;;;;;7.10;4.33;;;;;;;4.54;70.33;101972.84;5034128;28;20032;-77
2022/05/02 04:07:04;;;;;;;7.72;4.45;;;;;;;4.54;70.80;101972.84;5034060;28;20021;-77
2022/05/02 04:09:29;;;;;;;9.48;4.65;;;;;;;4.54;70.73;101972.84;5033341;28;20025;-77
2022/05/02 04:11:56;;;;;;;8.38;4.60;;;;;;;4.54;70.75;101972.84;5033728;28;20036;-77
2022/05/02 04:14:21;;;;;;;8.00;4.47;;;;;;;4.51;70.89;101976.22;5033870;28;20484;-77
2022/05/02 04:16:47;;;;;;;8.13;4.32;;;;;;;4.51;70.70;101972.75;5033223;28;20105;-77
2022/05/02 04:19:13;;;;;;;8.00;4.50;;;;;;;4.51;70.58;101965.94;5033959;28;20386;-77
2022/05/02 04:21:38;;;;;;;9.00;4.40;;;;;;;4.50;70.96;101971.91;5033708;28;20143;-77
2022/05/02 04:24:04;;;;;;;8.00;4.60;;;;;;;4.50;70.58;101965.91;5033286;28;20108;-77
2022/05/02 04:26:29;;;;;;;9.13;4.63;;;;;;;4.47;71.09;101970.13;5033970;28;20025;-77
2022/05/02 04:28:54;;;;;;;9.35;4.70;;;;;;;4.46;71.05;101978.66;5033634;28;20021;-77
2022/05/02 04:31:19;;;;;;;8.45;4.40;;;;;;;4.45;71.15;101968.31;5033010;28;20029;-77
2022/05/02 04:33:45;;;;;;;10.07;4.57;;;;;;;4.45;71.48;101968.31;5033476;28;20079;-76
2022/05/02 04:36:10;;;;;;;8.35;4.75;;;;;;;4.46;70.84;101965.81;5033836;28;20063;-77
2022/05/02 04:38:36;;;;;;;8.50;4.85;;;;;;;4.52;70.87;101969.34;5032882;28;20021;-77
2022/05/02 04:41:05;;;;;;;8.88;4.95;;;;;;;4.55;71.10;101972.91;5033247;28;20087;-77
2022/05/02 04:43:30;;;;;;;9.13;4.57;;;;;;;4.57;70.96;101962.66;5033694;28;20168;-77
2022/05/02 04:45:55;;;;;;;8.40;4.80;;;;;;;4.59;71.10;101963.56;5032856;28;20128;-77
2022/05/02 04:48:20;;;;;;;9.27;5.00;;;;;;;4.61;71.31;101967.91;5033512;28;20111;-77
2022/05/02 04:50:46;;;;;;;7.43;4.47;;;;;;;4.60;70.85;101966.16;5033179;28;20049;-77
2022/05/02 04:53:11;;;;;;;8.40;4.60;;;;;;;4.62;71.05;101963.63;5032648;28;20497;-77
2022/05/02 04:55:36;;;;;;;8.63;4.53;;;;;;;4.64;71.42;101962.88;5033106;28;20029;-77
2022/05/02 04:58:01;;;;;;;7.63;4.47;;;;;;;4.67;71.30;101961.22;5033211;28;20040;-77
2022/05/02 05:00:27;;;;;;;7.75;4.40;;;;;;;4.71;70.95;101969.06;5032345;28;20025;-77
2022/05/02 05:02:52;;;;;;;8.05;4.55;;;;;;;4.76;71.30;101976.88;5032705;28;20038;-77
2022/05/02 05:05:17;;;;;;;7.07;4.45;;;;;;;4.81;71.12;101969.28;5032576;28;20359;-77
2022/05/02 05:07:43;;;;;;;8.65;4.60;;;;;;;4.87;71.03;101974.59;5032846;28;20104;-77
2022/05/02 05:10:09;;;;;;;7.85;4.63;;;;;;;4.91;71.13;101971.28;5032924;28;20075;-76
2022/05/02 05:12:57;;;;;;;8.05;4.53;;;;;;;5.00;71.15;101974.09;5032233;28;20025;-77
2022/05/02 05:18:31;;;;;;;9.43;5.05;;;;;;;5.18;71.24;101968.53;5033170;28;20040;-77
2022/05/02 05:21:02;;;;;;;10.57;5.30;;;;;;;5.24;71.04;101966.09;5031909;28;20029;-77
2022/05/02 05:23:57;;;;;;;9.43;5.13;;;;;;;5.32;71.14;101973.16;5033144;28;20036;-77
2022/05/02 05:26:59;;;;;;;9.32;4.70;;;;;;;5.40;71.27;101980.22;5032313;28;20041;-77
2022/05/02 05:29:49;;;;;;;9.98;4.97;;;;;;;5.51;71.35;101974.50;5032975;28;20029;-77
2022/05/02 05:32:51;;;;;;;8.98;4.82;;;;;;;5.62;71.65;101978.19;5032909;28;20386;-76
2022/05/02 05:35:23;;;;;;;9.98;5.20;;;;;;;5.72;71.50;101969.84;5031901;28;20032;-77
2022/05/02 05:37:57;;;;;;;9.25;4.93;;;;;;;5.81;71.78;101974.31;5032797;28;20097;-77
2022/05/02 05:40:47;;;;;;;9.10;4.40;;;;;;;5.91;71.90;101969.38;5032439;28;20498;-77
2022/05/02 05:43:18;;;;;;;9.60;5.25;;;;;;;5.99;75.16;101973.00;5032920;28;20037;-77
2022/05/02 05:46:11;;;;;;;10.13;4.95;;;;;;;6.07;73.04;101966.31;5032168;28;20064;-77
2022/05/02 05:48:43;;;;;;;9.15;4.68;;;;;;;6.13;73.16;101974.19;5031814;28;20030;-77
2022/05/02 05:51:20;;;;;;;8.63;4.32;;;;;;;6.22;75.24;101973.50;5032483;28;20049;-76
2022/05/02 05:54:04;;;;;;;;;;;;;;;6.28;73.43;101976.22;5032683;28;20572;-78
2022/05/02 05:56:59;;;;;;;10.27;5.20;;;;;;;6.37;74.66;101974.66;5031605;28;19919;-77
2022/05/02 05:59:50;;;;;;;12.13;5.78;;;;;;;6.45;75.78;101979.16;5032496;28;20049;-77
2022/05/02 06:02:22;;;;;;;15.60;7.53;;;;;;;6.54;75.76;101978.44;5031452;28;20116;-77
2022/05/02 06:04:49;;;;;;;12.95;6.68;;;;;;;6.60;75.61;101978.56;5031378;28;20421;-77
2022/05/02 06:07:19;;;;;;;12.73;6.22;;;;;;;6.67;74.60;101974.41;5032619;28;20438;-77
2022/05/02 06:09:47;;;;;;;12.82;6.32;;;;;;;6.77;74.21;101981.47;5034295;28;20034;-77
2022/05/02 06:12:17;;;;;;;9.77;5.57;;;;;;;6.85;74.10;101978.16;5036471;28;20029;-77
2022/05/02 06:20:20;;;;;;;22.08;13.10;;;;;;;7.24;74.86;101980.56;5036744;28;20033;-77
2022/05/02 06:22:47;;;;;;;24.13;15.95;;;;;;;7.38;75.20;101983.38;5035344;28;20037;-77
2022/05/02 06:25:14;;;;;;;24.52;16.38;;;;;;;7.55;74.59;101980.22;5036150;28;20029;-79
2022/05/02 06:27:41;;;;;;;;;;;;;;;7.68;73.88;101973.50;5036392;28;20033;-78
2022/05/02 06:30:11;;;;;;;22.83;13.77;;;;;;;7.78;74.40;101987.44;5035520;28;19944;-78
2022/05/02 06:32:37;;;;;;;20.60;12.07;;;;;;;7.84;74.27;101980.66;5035919;28;20076;-78
2022/05/02 06:35:05;;;;;;;25.08;15.63;;;;;;;7.98;73.58;101985.16;5035433;28;20393;-78
2022/05/02 06:38:00;;;;;;;21.70;13.48;;;;;;;8.13;73.18;101975.00;5034922;28;20473;-78
2022/05/02 06:40:57;;;;;;;23.70;15.18;;;;;;;8.27;72.63;101984.66;5036242;28;20021;-77
2022/05/02 06:43:57;;;;;;;22.88;13.80;;;;;;;8.93;73.33;101977.69;5035876;28;20400;-78
2022/05/02 06:46:32;;;;;;;20.60;12.48;;;;;;;11.41;66.53;101978.84;5021822;28;20041;-78
2022/05/02 06:49:03;;;;;;;22.30;13.25;;;;;;;14.19;59.31;101974.50;5035314;28;20048;-79
2022/05/02 06:51:38;;;;;;;25.10;15.00;;;;;;;16.27;49.18;101986.84;5034919;28;20047;-79
2022/05/02 06:54:20;;;;;;;22.98;14.45;;;;;;;17.13;44.73;101974.44;5035711;28;20037;-79
2022/05/02 06:56:50;;;;;;;24.05;15.05;;;;;;;17.54;46.39;101974.28;5035226;28;20025;-78
2022/05/02 06:59:28;;;;;;;21.92;13.35;;;;;;;18.13;44.18;101977.94;5035016;28;20037;-78
2022/05/02 07:02:38;;;;;;;19.70;12.00;;;;;;;19.10;46.64;101971.47;5035217;28;20037;-78
2022/05/02 07:05:08;;;;;;;16.88;9.65;;;;;;;20.01;44.36;101983.25;5013356;28;20053;-79
2022/05/02 07:07:56;;;;;;;19.38;11.15;;;;;;;19.86;40.21;101975.94;5033835;28;20111;-79
2022/05/02 07:10:23;;;;;;;18.17;10.50;;;;;;;18.82;40.10;101976.72;5034692;28;20022;-79
2022/05/02 07:13:11;;;;;;;17.70;10.07;;;;;;;17.66;41.00;101983.59;5034190;28;20120;-78
2022/05/02 07:15:43;;;;;;;18.02;9.95;;;;;;;16.39;43.83;101985.72;5035520;28;20433;-79
2022/05/02 07:18:35;;;;;;;15.45;8.77;;;;;;;15.63;46.12;101974.97;5035297;28;20033;-78
2022/05/02 07:21:26;;;;;;;15.45;8.18;;;;;;;14.92;48.09;101974.41;5032105;28;20113;-79
2022/05/02 07:24:16;;;;;;;12.95;7.25;;;;;;;14.34;48.74;101979.53;5034729;28;20037;-78
2022/05/02 07:26:50;;;;;;;15.40;8.43;;;;;;;14.00;51.87;101972.13;5033945;28;20017;-79
2022/05/02 07:29:17;;;;;;;17.90;9.73;;;;;;;13.72;53.70;101982.88;5035218;28;20040;-79
2022/05/02 07:31:44;;;;;;;18.17;10.13;;;;;;;13.42;51.83;101976.22;5034114;28;20034;-79
2022/05/02 07:34:13;;;;;;;15.07;8.43;;;;;;;13.19;52.31;101971.13;5034082;28;20029;-79
2022/05/02 07:36:40;;;;;;;16.13;8.32;;;;;;;13.04;52.89;101967.81;5034329;28;20036;-80
2022/05/02 07:39:07;;;;;;;16.08;8.88;;;;;;;12.94;54.37;101980.03;5034953;28;20033;-79
2022/05/02 07:41:35;;;;;;;15.98;8.85;;;;;;;12.91;54.26;101977.44;5034049;28;20032;-79
2022/05/02 07:44:08;;;;;;;12.65;7.00;;;;;;;12.94;54.58;101976.56;5033976;28;20025;-79
2022/05/02 07:46:47;;;;;;;15.68;8.45;;;;;;;12.96;55.14;101977.38;5034438;28;20132;-79
2022/05/02 07:49:21;;;;;;;16.75;8.80;;;;;;;12.98;54.49;101965.22;5033921;28;20033;-79
2022/05/02 07:51:50;;;;;;;13.82;7.32;;;;;;;13.00;54.54;101968.69;5033952;28;20553;-80
2022/05/02 07:54:20;;;;;;;12.57;6.80;;;;;;;13.07;53.42;101967.75;5033870;28;20045;-79
2022/05/02 07:56:49;;;;;;;14.77;7.95;;;;;;;13.11;54.81;101969.47;5034253;28;20061;-79
2022/05/02 07:59:16;;;;;;;13.32;7.07;;;;;;;13.16;53.92;101977.25;5034303;28;20044;-79
2022/05/02 08:01:42;;;;;;;17.40;9.52;;;;;;;13.15;53.68;101966.84;5033633;28;20032;-79
2022/05/02 08:04:11;;;;;;;18.15;9.77;;;;;;;13.19;53.24;101973.75;5033852;28;20029;-79
2022/05/02 08:07:00;;;;;;;16.05;9.07;;;;;;;13.20;53.82;101971.16;5032935;28;20040;-79
2022/05/02 08:10:07;;;;;;;17.50;9.32;;;;;;;13.26;53.39;101976.28;5013419;28;20112;-80
2022/05/02 08:12:39;;;;;;;17.02;9.20;;;;;;;13.29;53.29;101971.06;5034196;28;20108;-80
2022/05/02 08:15:20;;;;;;;16.73;8.35;;;;;;;13.38;53.00;101979.69;5033839;28;20033;-80
2022/05/02 08:18:10;;;;;;;14.25;7.35;;;;;;;13.50;52.06;101969.16;5033805;28;20041;-79
2022/05/02 08:21:02;;;;;;;14.65;8.45;;;;;;;13.58;51.37;101963.88;5034277;28;20057;-79
2022/05/02 08:27:19;;;;;;;18.20;9.77;;;;;;;13.63;48.73;101969.91;5033974;28;20405;-79
2022/05/02 08:30:01;;;;;;;17.35;9.43;;;;;;;13.72;48.38;101972.44;5032887;28;20405;-80
2022/05/02 08:32:43;;;;;;;16.35;9.25;;;;;;;13.78;47.18;101973.25;5033440;28;20041;-80
2022/05/02 08:35:11;;;;;;;18.48;9.93;;;;;;;13.76;47.08;101973.28;5033809;28;20034;-80
2022/05/02 08:38:10;;;;;;;16.83;9.07;;;;;;;13.81;47.46;101970.59;5032782;28;20033;-80
2022/05/02 08:41:13;;;;;;;12.50;7.15;;;;;;;13.98;48.16;101970.41;5033609;28;20037;-79
2022/05/02 08:44:06;;;;;;;15.13;7.38;;;;;;;14.15;48.30;101971.06;5032405;28;20035;-80
2022/05/02 08:47:15;;;;;;;18.95;9.68;;;;;;;14.15;45.93;101968.47;5033674;28;20025;-80
2022/05/02 08:50:21;;;;;;;16.38;7.90;;;;;;;14.22;45.86;101974.47;5033320;28;20116;-79
2022/05/02 08:53:11;;;;;;;15.55;8.20;;;;;;;14.25;44.99;101971.84;5032887;28;20045;-80
2022/05/02 08:56:05;;;;;;;11.98;6.53;;;;;;;14.39;47.15;101960.34;5033402;28;20026;-79
2022/05/02 08:59:04;;;;;;;14.23;7.93;;;;;;;14.56;46.83;101963.59;5032403;28;20022;-80
2022/05/02 09:02:04;;;;;;;16.08;8.52;;;;;;;14.77;45.89;101964.19;5033186;28;20021;-79
2022/05/02 09:04:48;;;;;;;12.98;7.18;;;;;;;14.94;44.39;101967.41;5031931;28;20439;-79
2022/05/02 09:07:41;;;;;;;13.88;7.32;;;;;;;15.06;45.51;101953.28;5033330;28;20029;-80
2022/05/02 09:10:20;;;;;;;15.57;7.80;;;;;;;15.15;44.85;101962.72;5033063;28;20032;-79
2022/05/02 09:13:23;;;;;;;12.95;7.30;;;;;;;15.25;43.73;101960.84;5032065;28;20040;-79
2022/05/02 09:16:01;;;;;;;11.73;6.70;;;;;;;15.39;44.66;101955.34;5032778;28;20037;-79
2022/05/02 09:18:51;;;;;;;16.70;8.38;;;;;;;15.16;42.78;101966.19;5032502;28;20020;-80
2022/05/02 09:21:26;;;;;;;12.95;6.90;;;;;;;15.19;44.68;101951.34;5033076;28;20029;-82
2022/05/02 09:24:13;;;;;;;10.35;6.15;;;;;;;15.45;44.49;101955.22;5032658;28;20026;-78
2022/05/02 09:27:10;;;;;;;10.82;5.95;;;;;;;15.66;43.46;101955.72;5028941;28;20061;-79
2022/05/02 09:30:04;;;;;;;11.45;6.10;;;;;;;15.84;44.06;101946.66;5015969;28;20056;-80
2022/05/02 09:32:52;;;;;;;15.10;7.95;;;;;;;15.92;42.07;101952.66;5038762;28;20086;-80
2022/05/02 09:35:29;;;;;;;10.93;6.07;;;;;;;16.01;43.82;101949.84;5032160;28;20026;-79
2022/05/02 09:37:57;;;;;;;9.65;5.43;;;;;;;16.19;43.91;101943.38;5032342;28;20032;-80
2022/05/02 09:40:35;;;;;;;9.05;5.15;;;;;;;16.41;43.11;101940.28;5030874;28;20079;-80
2022/05/02 09:43:22;;;;;;;6.60;4.10;;;;;;;16.65;44.06;101941.47;5029476;28;20024;-80
2022/05/02 09:52:17;;;;;;;13.43;7.40;;;;;;;16.04;41.89;101935.81;5032248;28;20057;-79
2022/05/02 09:58:00;;;;;;;9.57;5.50;;;;;;;16.58;41.49;101925.91;5032084;28;20057;-80
2022/05/02 10:03:25;;;;;;;10.52;6.18;;;;;;;16.93;39.38;101927.72;5032812;28;20572;-80
2022/05/02 10:06:13;;;;;;;11.93;6.60;;;;;;;16.88;40.33;101919.09;5032250;28;20029;-80
2022/05/02 10:09:17;;;;;;;8.63;5.32;;;;;;;17.11;40.07;101926.38;5031206;28;20108;-80
2022/05/02 10:12:12;;;;;;;11.27;5.95;;;;;;;17.25;38.68;101926.06;4990566;28;20066;-80
2022/05/02 10:15:00;;;;;;;8.33;4.90;;;;;;;17.33;40.29;101922.34;5031951;28;20038;-80
2022/05/02 10:17:53;;;;;;;11.63;6.10;;;;;;;17.45;37.35;101928.13;5032540;28;20060;-81
2022/05/02 10:20:20;;;;;;;11.02;5.97;;;;;;;17.41;36.98;101937.00;5032338;28;20552;-80
2022/05/02 10:23:15;;;;;;;13.45;6.88;;;;;;;17.24;39.24;101928.69;5031374;28;20022;-80
2022/05/02 10:26:06;;;;;;;10.15;6.10;;;;;;;17.32;38.83;101924.13;5032069;28;20470;-80
2022/05/02 10:28:41;;;;;;;8.60;5.20;;;;;;;17.53;37.46;101924.44;5031390;28;20112;-80
2022/05/02 10:31:27;;;;;;;7.50;4.93;;;;;;;17.72;39.08;101925.66;5031546;28;20037;-81
2022/05/02 10:33:54;;;;;;;10.32;6.03;;;;;;;17.68;36.83;101917.91;5031822;28;20033;-80
2022/05/02 10:36:22;;;;;;;12.07;6.28;;;;;;;17.76;38.11;101910.69;5031610;28;20433;-80
2022/05/02 10:38:54;;;;;;;13.30;6.28;;;;;;;17.71;37.66;101918.69;5031795;28;20496;-81
2022/05/02 10:41:34;;;;;;;11.52;7.03;;;;;;;17.57;36.94;101910.31;5032124;28;20029;-82
2022/05/02 10:44:02;;;;;;;11.90;6.30;;;;;;;17.58;38.26;101909.44;5031003;28;20030;-82
2022/05/02 10:46:29;;;;;;;9.98;5.85;;;;;;;17.46;36.39;101913.25;5032053;28;20466;-81
2022/05/02 10:49:18;;;;;;;7.72;4.85;;;;;;;17.65;38.63;101902.25;5031922;28;20030;-81
2022/05/02 10:52:07;;;;;;;9.73;5.72;;;;;;;17.82;34.88;101897.38;5030945;28;20052;-82
2022/05/02 10:54:49;;;;;;;9.52;5.43;;;;;;;17.88;36.13;101896.34;5033241;28;20034;-81
2022/05/02 10:57:33;;;;;;;6.78;4.63;;;;;;;18.06;36.75;101900.22;5034833;28;20098;-81
2022/05/02 11:00:03;;;;;;;5.80;4.20;;;;;;;18.31;37.73;101888.94;5035427;28;20421;-82
2022/05/02 11:02:47;;;;;;;11.05;6.18;;;;;;;18.32;35.95;101894.19;5035528;28;20026;-80
2022/05/02 11:05:17;;;;;;;11.60;6.32;;;;;;;18.18;35.84;101894.56;5034503;28;20385;-80
2022/05/02 11:07:45;;;;;;;11.57;6.50;;;;;;;18.10;34.83;101890.50;5035175;28;20034;-80
2022/05/02 11:10:17;;;;;;;11.85;6.80;;;;;;;18.08;35.67;101894.91;5035261;28;20403;-80
2022/05/02 11:12:51;;;;;;;14.30;8.02;;;;;;;17.83;34.94;101896.47;5034208;28;20049;-81
2022/05/02 11:15:35;;;;;;;11.85;6.63;;;;;;;17.95;36.73;101883.91;5034657;28;20124;-78
2022/05/02 11:18:07;;;;;;;8.40;5.13;;;;;;;18.19;37.50;101882.31;5034622;28;20037;-76
2022/05/02 11:20:58;;;;;;;5.90;4.30;;;;;;;18.50;36.11;101879.59;5035088;28;20486;-78
2022/05/02 11:23:50;;;;;;;11.93;6.22;;;;;;;18.42;36.62;101875.47;5034522;28;20812;-83
2022/05/02 11:26:45;;;;;;;6.32;3.90;;;;;;;18.66;37.37;101872.06;5023028;28;20072;-79
2022/05/02 11:29:44;;;;;;;11.13;6.15;;;;;;;18.65;36.08;101874.72;5034902;28;20029;-82
2022/05/02 11:32:22;;;;;;;14.90;7.93;;;;;;;18.51;34.59;101870.81;5034445;28;20034;-78
2022/05/02 11:35:06;;;;;;;10.40;6.45;;;;;;;18.53;34.88;101862.84;5033530;28;20026;-79
2022/05/02 11:37:42;;;;;;;11.20;6.07;;;;;;;18.67;35.03;101872.91;5034895;28;20482;-80
2022/05/02 11:40:10;;;;;;;10.18;5.97;;;;;;;18.63;36.87;101863.44;5034189;28;20032;-79
2022/05/02 11:42:45;;;;;;;9.15;5.82;;;;;;;18.73;35.96;101859.56;5035102;28;20099;-79
2022/05/02 11:45:13;;;;;;;8.65;5.43;;;;;;;18.87;35.49;101859.09;5034808;28;20037;-78
2022/05/02 11:48:10;;;;;;;10.80;5.70;;;;;;;18.91;32.81;101863.34;5033767;28;20026;-79
2022/05/02 11:50:46;;;;;;;10.02;6.07;;;;;;;18.70;34.33;101861.41;5027743;28;20022;-79
2022/05/02 11:53:14;;;;;;;10.20;5.85;;;;;;;18.92;33.20;101858.94;5031951;28;20057;-79
2022/05/02 11:55:42;;;;;;;10.40;5.82;;;;;;;19.07;33.94;101857.59;5034196;28;20104;-79
2022/05/02 11:58:25;;;;;;;10.35;6.07;;;;;;;19.26;34.26;101860.44;5034173;28;20028;-78
2022/05/02 12:00:58;;;;;;;9.73;5.88;;;;;;;19.30;32.18;101859.41;5033134;28;20029;-78
2022/05/02 12:03:25;;;;;;;10.25;5.57;;;;;;;19.39;34.63;101860.81;5034365;28;20013;-76
2022/05/02 12:05:55;;;;;;;7.57;4.85;;;;;;;19.50;33.53;101856.03;5033533;28;20033;-76
2022/05/02 12:08:25;;;;;;;10.50;5.80;;;;;;;19.56;33.14;101860.22;5033593;28;20026;-80
2022/05/02 12:11:04;;;;;;;7.20;4.70;;;;;;;19.69;35.33;101853.56;5034004;28;20055;-78
2022/05/02 12:13:34;;;;;;;5.28;3.50;;;;;;;19.97;35.26;101854.31;5033866;28;20521;-80
2022/05/02 12:16:11;;;;;;;5.30;3.70;;;;;;;20.23;34.30;101844.53;5033496;28;20407;-80
2022/05/02 12:19:00;;;;;;;6.03;3.80;;;;;;;20.42;32.17;101836.75;5034134;28;20079;-81
2022/05/02 12:21:42;;;;;;;5.28;3.67;;;;;;;20.54;32.02;101836.25;5033411;28;20401;-81
2022/05/02 12:24:10;;;;;;;6.03;4.05;;;;;;;20.62;34.23;101839.41;5033545;28;20033;-83
2022/05/02 12:26:51;;;;;;;6.97;4.20;;;;;;;20.78;34.72;101828.22;5034043;28;20025;-78